createdAt,value
2018-04-01T10:18:51.497Z,3.65
2018-04-01T10:19:03.654Z,3.65
2018-04-01T10:19:15.809Z,3.65
2018-04-01T10:19:27.962Z,3.65
2018-04-01T10:19:40.113Z,3.65
2018-04-01T10:19:52.384Z,3.65
2018-04-01T10:20:04.766Z,3.65
2018-04-01T10:20:18.186Z,3.65
2018-04-01T10:20:30.336Z,3.65
2018-04-01T10:20:42.477Z,3.65
2018-04-01T10:20:54.629Z,3.65
2018-04-01T10:21:06.779Z,3.65
2018-04-01T10:21:18.989Z,3.65
2018-04-01T10:21:31.146Z,3.65
2018-04-01T10:21:43.291Z,3.65
2018-04-01T10:21:55.428Z,3.65
2018-04-01T10:22:07.636Z,3.65
2018-04-01T10:22:19.776Z,3.65
2018-04-01T10:22:31.908Z,3.65
2018-04-01T10:22:44.037Z,3.65
2018-04-01T10:22:56.198Z,3.65
2018-04-01T10:23:08.335Z,3.65
2018-04-01T10:23:20.498Z,3.65
2018-04-01T10:23:32.640Z,3.65
2018-04-01T10:23:44.778Z,3.65
2018-04-01T10:23:57.055Z,3.65
2018-04-01T10:24:09.202Z,3.65
2018-04-01T10:24:21.361Z,3.65
2018-04-01T10:24:33.511Z,3.65
2018-04-01T10:24:45.649Z,3.65
2018-04-01T10:24:57.807Z,3.65
2018-04-01T10:25:09.951Z,3.65
2018-04-01T10:25:22.088Z,3.65
2018-04-01T10:25:34.219Z,3.65
2018-04-01T10:25:46.362Z,3.65
2018-04-01T10:25:58.496Z,3.65
2018-04-01T10:26:10.635Z,3.65
2018-04-01T10:26:22.775Z,3.65
2018-04-01T10:26:34.920Z,3.65
2018-04-01T10:26:47.635Z,3.65
2018-04-01T10:26:59.914Z,3.65
2018-04-01T10:27:12.070Z,3.65
2018-04-01T10:27:24.205Z,3.65
2018-04-01T10:27:36.342Z,3.65
2018-04-01T10:27:48.480Z,3.65
2018-04-01T10:28:00.617Z,5.13
2018-04-01T10:28:12.760Z,5.13
2018-04-01T10:28:24.916Z,5.13
2018-04-01T10:28:37.066Z,5.13
2018-04-01T10:28:49.216Z,5.13
2018-04-01T10:29:01.358Z,5.13
2018-04-01T10:29:13.496Z,5.13
2018-04-01T10:29:25.691Z,5.13
2018-04-01T10:29:37.833Z,5.13
2018-04-01T10:29:49.968Z,5.13
2018-04-01T10:30:02.123Z,5.13
2018-04-01T10:30:14.275Z,5.13
2018-04-01T10:30:26.430Z,5.13
2018-04-01T10:30:38.567Z,5.13
2018-04-01T10:30:50.725Z,5.13
2018-04-01T10:31:02.862Z,5.13
2018-04-01T10:31:15.000Z,5.13
2018-04-01T10:31:27.144Z,5.13
2018-04-01T10:31:39.304Z,5.13
2018-04-01T10:31:51.421Z,5.13
2018-04-01T10:32:03.632Z,5.13
2018-04-01T10:32:15.767Z,5.13
2018-04-01T10:32:27.910Z,5.13
2018-04-01T10:32:40.326Z,5.13
2018-04-01T10:32:52.470Z,5.13
2018-04-01T10:33:04.597Z,5.13
2018-04-01T10:33:16.756Z,5.13
2018-04-01T10:33:28.886Z,5.13
2018-04-01T10:33:41.027Z,5.13
2018-04-01T10:33:53.500Z,5.13
2018-04-01T10:34:05.648Z,5.13
2018-04-01T10:34:17.776Z,5.13
2018-04-01T10:34:29.964Z,5.13
2018-04-01T10:34:42.096Z,5.13
2018-04-01T10:34:54.240Z,5.13
2018-04-01T10:35:06.393Z,5.13
2018-04-01T10:35:18.553Z,5.13
2018-04-01T10:35:30.727Z,5.13
2018-04-01T10:35:42.933Z,5.13
2018-04-01T10:35:55.077Z,5.13
2018-04-01T10:36:07.244Z,5.13
2018-04-01T10:36:19.589Z,5.13
2018-04-01T10:36:31.714Z,5.13
2018-04-01T10:36:43.898Z,5.13
2018-04-01T10:36:56.063Z,5.13
2018-04-01T10:37:08.268Z,5.13
2018-04-01T10:37:20.426Z,5.13
2018-04-01T10:37:32.552Z,5.13
2018-04-01T10:37:44.694Z,5.13
2018-04-01T10:37:56.828Z,4.06
2018-04-01T10:38:09.310Z,4.06
2018-04-01T10:38:21.452Z,4.06
2018-04-01T10:38:33.589Z,4.06
2018-04-01T10:38:45.750Z,4.06
2018-04-01T10:38:57.923Z,4.06
2018-04-01T10:39:10.046Z,4.06
2018-04-01T10:39:22.200Z,4.06
2018-04-01T10:39:34.341Z,4.06
2018-04-01T10:39:46.476Z,4.06
2018-04-01T10:39:58.610Z,4.06
2018-04-01T10:40:10.758Z,4.06
2018-04-01T10:40:22.916Z,4.06
2018-04-01T10:40:35.065Z,4.06
2018-04-01T10:40:47.220Z,4.06
2018-04-01T10:40:59.365Z,4.06
2018-04-01T10:41:11.498Z,4.06
2018-04-01T10:41:23.625Z,4.06
2018-04-01T10:41:35.797Z,4.06
2018-04-01T10:41:47.951Z,4.06
2018-04-01T10:42:00.088Z,4.06
2018-04-01T10:42:12.223Z,4.06
2018-04-01T10:42:24.351Z,4.06
2018-04-01T10:42:36.489Z,4.06
2018-04-01T10:42:48.637Z,4.06
2018-04-01T10:43:00.794Z,4.06
2018-04-01T10:43:13.132Z,4.06
2018-04-01T10:43:25.654Z,4.06
2018-04-01T10:43:37.852Z,4.06
2018-04-01T10:43:49.989Z,4.06
2018-04-01T10:44:02.137Z,4.06
2018-04-01T10:44:14.272Z,4.06
2018-04-01T10:44:26.411Z,4.06
2018-04-01T10:44:38.558Z,4.06
2018-04-01T10:44:50.743Z,4.06
2018-04-01T10:45:03.024Z,4.06
2018-04-01T10:45:15.163Z,4.06
2018-04-01T10:45:27.315Z,4.06
2018-04-01T10:45:39.504Z,4.06
2018-04-01T10:45:51.632Z,4.06
2018-04-01T10:46:03.767Z,4.06
2018-04-01T10:46:15.906Z,4.06
2018-04-01T10:46:28.034Z,4.06
2018-04-01T10:46:40.170Z,4.06
2018-04-01T10:46:52.317Z,4.06
2018-04-01T10:47:04.468Z,4.06
2018-04-01T10:47:16.601Z,4.06
2018-04-01T10:47:28.735Z,4.06
2018-04-01T10:47:40.886Z,4.06
2018-04-01T10:47:53.034Z,4.06
2018-04-01T10:48:05.347Z,4.48
2018-04-01T10:48:17.503Z,4.48
2018-04-01T10:48:29.632Z,4.48
2018-04-01T10:48:41.841Z,4.48
2018-04-01T10:48:53.978Z,4.48
2018-04-01T10:49:06.288Z,4.48
2018-04-01T10:49:18.417Z,4.48
2018-04-01T10:49:30.844Z,4.48
2018-04-01T10:49:43.076Z,4.48
2018-04-01T10:49:55.231Z,4.48
2018-04-01T10:50:07.378Z,4.48
2018-04-01T10:50:19.532Z,4.48
2018-04-01T10:50:31.678Z,4.48
2018-04-01T10:50:43.818Z,4.48
2018-04-01T10:50:55.940Z,4.48
2018-04-01T10:51:08.093Z,4.48
2018-04-01T10:51:20.230Z,4.48
2018-04-01T10:51:32.364Z,4.48
2018-04-01T10:51:44.495Z,4.48
2018-04-01T10:51:56.631Z,4.48
2018-04-01T10:52:08.771Z,4.48
2018-04-01T10:52:20.899Z,4.48
2018-04-01T10:52:33.047Z,4.48
2018-04-01T10:52:45.185Z,4.48
2018-04-01T10:52:57.335Z,4.48
2018-04-01T10:53:09.463Z,4.48
2018-04-01T10:53:21.597Z,4.48
2018-04-01T10:53:33.748Z,4.48
2018-04-01T10:53:45.888Z,4.48
2018-04-01T10:53:58.382Z,4.48
2018-04-01T10:54:10.521Z,4.48
2018-04-01T10:54:22.653Z,4.48
2018-04-01T10:54:34.795Z,4.48
2018-04-01T10:54:46.938Z,4.48
2018-04-01T10:54:59.227Z,4.48
2018-04-01T10:55:11.801Z,4.48
2018-04-01T10:55:23.939Z,4.48
2018-04-01T10:55:36.078Z,4.48
2018-04-01T10:55:48.214Z,4.48
2018-04-01T10:56:00.353Z,4.48
2018-04-01T10:56:12.481Z,4.48
2018-04-01T10:56:24.647Z,4.48
2018-04-01T10:56:36.780Z,4.48
2018-04-01T10:56:48.924Z,4.48
2018-04-01T10:57:01.069Z,4.48
2018-04-01T10:57:13.359Z,4.48
2018-04-01T10:57:25.496Z,4.48
2018-04-01T10:57:37.630Z,4.48
2018-04-01T10:57:49.758Z,4.48
2018-04-01T10:58:01.913Z,4.48
2018-04-01T10:58:14.103Z,4.48
2018-04-01T10:58:26.238Z,4.48
2018-04-01T10:58:38.375Z,4.48
2018-04-01T10:58:50.516Z,4.48
2018-04-01T10:59:02.677Z,4.48
2018-04-01T10:59:14.840Z,4.48
2018-04-01T10:59:27.000Z,4.48
2018-04-01T10:59:39.146Z,4.48
2018-04-01T10:59:51.288Z,4.48
2018-04-01T11:00:03.418Z,4.48
2018-04-01T11:00:15.642Z,4.48
2018-04-01T11:00:27.809Z,4.48
2018-04-01T11:00:39.967Z,4.48
2018-04-01T11:00:52.114Z,4.48
2018-04-01T11:01:04.270Z,4.48
2018-04-01T11:01:16.430Z,4.48
2018-04-01T11:01:28.566Z,4.48
2018-04-01T11:01:40.696Z,4.48
2018-04-01T11:01:52.919Z,4.48
2018-04-01T11:02:05.065Z,4.48
2018-04-01T11:02:17.342Z,4.48
2018-04-01T11:02:29.468Z,4.48
2018-04-01T11:02:41.616Z,4.48
2018-04-01T11:02:53.762Z,4.48
2018-04-01T11:03:05.956Z,4.48
2018-04-01T11:03:18.087Z,4.48
2018-04-01T11:03:30.218Z,4.48
2018-04-01T11:03:42.355Z,4.48
2018-04-01T11:03:54.499Z,4.48
2018-04-01T11:04:06.645Z,4.48
2018-04-01T11:04:18.794Z,4.48
2018-04-01T11:04:30.920Z,4.48
2018-04-01T11:04:43.132Z,4.48
2018-04-01T11:04:55.266Z,4.48
2018-04-01T11:05:07.577Z,4.48
2018-04-01T11:05:20.048Z,4.48
2018-04-01T11:05:32.188Z,4.48
2018-04-01T11:05:44.352Z,4.48
2018-04-01T11:05:56.494Z,4.48
2018-04-01T11:06:08.653Z,4.48
2018-04-01T11:06:20.792Z,4.48
2018-04-01T11:06:32.939Z,4.48
2018-04-01T11:06:45.090Z,4.48
2018-04-01T11:06:57.238Z,4.48
2018-04-01T11:07:09.751Z,4.48
2018-04-01T11:07:21.898Z,4.48
2018-04-01T11:07:34.028Z,4.48
2018-04-01T11:07:46.177Z,4.48
2018-04-01T11:07:58.349Z,4.48
2018-04-01T11:08:10.507Z,4.48
2018-04-01T11:08:22.645Z,4.48
2018-04-01T11:08:34.778Z,4.48
2018-04-01T11:08:46.956Z,4.48
2018-04-01T11:08:59.102Z,4.48
2018-04-01T11:09:11.246Z,4.48
2018-04-01T11:09:23.439Z,4.48
2018-04-01T11:09:35.578Z,4.48
2018-04-01T11:09:47.741Z,4.48
2018-04-01T11:09:59.885Z,4.48
2018-04-01T11:10:12.047Z,4.48
2018-04-01T11:10:24.184Z,4.48
2018-04-01T11:10:36.334Z,4.48
2018-04-01T11:10:48.482Z,4.48
2018-04-01T11:11:00.636Z,4.48
2018-04-01T11:11:12.781Z,4.48
2018-04-01T11:11:25.005Z,4.48
2018-04-01T11:11:37.376Z,4.48
2018-04-01T11:11:49.511Z,4.48
2018-04-01T11:12:01.811Z,4.48
2018-04-01T11:12:13.956Z,4.48
2018-04-01T11:12:26.089Z,4.48
2018-04-01T11:12:38.306Z,4.48
2018-04-01T11:12:50.448Z,4.48
2018-04-01T11:13:02.757Z,4.48
2018-04-01T11:13:14.889Z,4.48
2018-04-01T11:13:27.017Z,4.48
2018-04-01T11:13:39.155Z,4.48
2018-04-01T11:13:51.290Z,4.48
2018-04-01T11:14:03.430Z,4.48
2018-04-01T11:14:15.606Z,4.48
2018-04-01T11:14:27.819Z,4.48
2018-04-01T11:14:39.958Z,4.48
2018-04-01T11:14:52.730Z,4.48
2018-04-01T11:15:04.868Z,4.48
2018-04-01T11:15:17.074Z,4.48
2018-04-01T11:15:29.215Z,4.48
2018-04-01T11:15:41.372Z,4.48
2018-04-01T11:15:53.514Z,4.48
2018-04-01T11:16:05.704Z,4.48
2018-04-01T11:16:17.837Z,4.48
2018-04-01T11:16:29.981Z,4.48
2018-04-01T11:16:42.114Z,4.48
2018-04-01T11:16:54.266Z,4.48
2018-04-01T11:17:06.836Z,4.48
2018-04-01T11:17:18.994Z,4.48
2018-04-01T11:17:31.165Z,4.48
2018-04-01T11:17:43.314Z,4.48
2018-04-01T11:17:55.486Z,4.48
2018-04-01T11:18:07.648Z,4.48
2018-04-01T11:18:19.785Z,4.48
2018-04-01T11:18:31.966Z,4.48
2018-04-01T11:18:44.116Z,4.48
2018-04-01T11:18:56.246Z,4.48
2018-04-01T11:19:08.429Z,4.48
2018-04-01T11:19:20.597Z,4.48
2018-04-01T11:19:32.752Z,4.48
2018-04-01T11:19:44.901Z,4.48
2018-04-01T11:19:57.060Z,4.48
2018-04-01T11:20:09.225Z,4.48
2018-04-01T11:20:21.440Z,4.48
2018-04-01T11:20:33.575Z,4.48
2018-04-01T11:20:45.723Z,4.48
2018-04-01T11:20:57.893Z,4.48
2018-04-01T11:21:10.031Z,4.48
2018-04-01T11:21:22.196Z,4.48
2018-04-01T11:21:34.336Z,4.48
2018-04-01T11:21:46.469Z,4.48
2018-04-01T11:21:58.604Z,4.48
2018-04-01T11:22:10.734Z,4.48
2018-04-01T11:22:22.897Z,4.48
2018-04-01T11:22:35.029Z,4.48
2018-04-01T11:22:47.166Z,4.48
2018-04-01T11:22:59.323Z,4.48
2018-04-01T11:23:11.476Z,4.48
2018-04-01T11:23:23.625Z,4.48
2018-04-01T11:23:35.771Z,4.48
2018-04-01T11:23:47.917Z,4.48
2018-04-01T11:24:00.064Z,4.48
2018-04-01T11:24:12.211Z,4.48
2018-04-01T11:24:24.365Z,4.48
2018-04-01T11:24:36.532Z,4.48
2018-04-01T11:24:48.706Z,4.48
2018-04-01T11:25:00.870Z,4.48
2018-04-01T11:25:13.024Z,4.48
2018-04-01T11:25:25.180Z,4.48
2018-04-01T11:25:37.340Z,4.48
2018-04-01T11:25:49.512Z,4.48
2018-04-01T11:26:01.782Z,4.48
2018-04-01T11:26:14.154Z,4.48
2018-04-01T11:26:26.292Z,4.48
2018-04-01T11:26:38.503Z,4.48
2018-04-01T11:26:50.648Z,4.48
2018-04-01T11:27:02.792Z,4.48
2018-04-01T11:27:14.949Z,4.48
2018-04-01T11:27:27.069Z,4.48
2018-04-01T11:27:39.213Z,4.48
2018-04-01T11:27:51.371Z,4.48
2018-04-01T11:28:03.514Z,4.48
2018-04-01T11:28:15.663Z,4.48
2018-04-01T11:28:27.799Z,4.48
2018-04-01T11:28:39.932Z,4.48
2018-04-01T11:28:52.060Z,4.48
2018-04-01T11:29:04.228Z,4.48
2018-04-01T11:29:16.387Z,4.48
2018-04-01T11:29:28.521Z,4.48
2018-04-01T11:29:40.664Z,4.48
2018-04-01T11:29:52.796Z,4.48
2018-04-01T11:30:04.937Z,4.48
2018-04-01T11:30:17.085Z,4.48
2018-04-01T11:30:29.396Z,4.48
2018-04-01T11:30:41.536Z,4.48
2018-04-01T11:30:53.669Z,4.48
2018-04-01T11:31:05.940Z,4.48
2018-04-01T11:31:18.504Z,4.48
2018-04-01T11:31:30.907Z,4.48
2018-04-01T11:31:43.049Z,4.48
2018-04-01T11:31:55.185Z,4.48
2018-04-01T11:32:07.379Z,4.48
2018-04-01T11:32:19.547Z,4.48
2018-04-01T11:32:31.693Z,4.48
2018-04-01T11:32:43.840Z,4.48
2018-04-01T11:32:55.991Z,4.48
2018-04-01T11:33:08.160Z,4.48
2018-04-01T11:33:20.305Z,4.48
2018-04-01T11:33:32.457Z,4.48
2018-04-01T11:33:44.602Z,4.48
2018-04-01T11:33:56.743Z,4.48
2018-04-01T11:34:08.919Z,4.48
2018-04-01T11:34:21.065Z,4.48
2018-04-01T11:34:33.239Z,4.48
2018-04-01T11:34:45.410Z,4.48
2018-04-01T11:34:57.560Z,4.48
2018-04-01T11:35:09.766Z,4.48
2018-04-01T11:35:21.906Z,4.48
2018-04-01T11:35:34.051Z,4.48
2018-04-01T11:35:46.204Z,4.48
2018-04-01T11:35:58.336Z,4.48
2018-04-01T11:36:10.473Z,4.48
2018-04-01T11:36:22.606Z,4.48
2018-04-01T11:36:34.805Z,4.48
2018-04-01T11:36:46.947Z,4.48
2018-04-01T11:36:59.082Z,4.48
2018-04-01T11:37:11.412Z,4.48
2018-04-01T11:37:23.593Z,4.48
2018-04-01T11:37:35.785Z,4.48
2018-04-01T11:37:47.927Z,4.48
2018-04-01T11:38:00.121Z,4.48
2018-04-01T11:38:12.260Z,4.48
2018-04-01T11:38:24.394Z,4.48
2018-04-01T11:38:36.535Z,4.48
2018-04-01T11:38:48.676Z,4.48
2018-04-01T11:39:00.821Z,4.48
2018-04-01T11:39:12.965Z,4.48
2018-04-01T11:39:25.144Z,4.48
2018-04-01T11:39:37.283Z,4.48
2018-04-01T11:39:49.448Z,4.48
2018-04-01T11:40:01.596Z,4.48
2018-04-01T11:40:13.760Z,4.48
2018-04-01T11:40:25.899Z,4.48
2018-04-01T11:40:38.092Z,4.48
2018-04-01T11:40:50.240Z,4.48
2018-04-01T11:41:02.396Z,4.48
2018-04-01T11:41:14.543Z,4.48
2018-04-01T11:41:26.715Z,4.48
2018-04-01T11:41:38.867Z,4.48
2018-04-01T11:41:51.080Z,4.48
2018-04-01T11:42:03.267Z,4.48
2018-04-01T11:42:15.490Z,4.48
2018-04-01T11:42:27.634Z,4.48
2018-04-01T11:42:39.812Z,4.48
2018-04-01T11:42:51.962Z,4.48
2018-04-01T11:43:04.112Z,4.48
2018-04-01T11:43:16.251Z,4.48
2018-04-01T11:43:28.517Z,4.48
2018-04-01T11:43:40.700Z,4.48
2018-04-01T11:43:52.839Z,4.48
2018-04-01T11:44:04.981Z,4.48
2018-04-01T11:44:17.185Z,4.48
2018-04-01T11:44:29.328Z,4.48
2018-04-01T11:44:41.465Z,4.48
2018-04-01T11:44:53.602Z,4.48
2018-04-01T11:45:05.755Z,4.48
2018-04-01T11:45:17.934Z,4.48
2018-04-01T11:45:30.073Z,4.48
2018-04-01T11:45:42.211Z,4.48
2018-04-01T11:45:54.403Z,4.48
2018-04-01T11:46:06.551Z,4.48
2018-04-01T11:46:18.691Z,4.48
2018-04-01T11:46:30.834Z,4.48
2018-04-01T11:46:43.039Z,4.48
2018-04-01T11:46:55.201Z,4.48
2018-04-01T11:47:07.344Z,4.48
2018-04-01T11:47:19.517Z,4.48
2018-04-01T11:47:31.675Z,4.48
2018-04-01T11:47:43.807Z,4.48
2018-04-01T19:29:03.803Z,16.6
2018-04-01T19:29:15.936Z,16.6
2018-04-01T19:29:28.096Z,16.6
2018-04-01T19:29:40.247Z,16.6
2018-04-01T19:29:52.381Z,16.6
2018-04-01T19:30:04.519Z,16.6
2018-04-01T19:30:16.665Z,16.6
2018-04-01T19:30:28.800Z,16.6
2018-04-01T19:30:40.939Z,16.6
2018-04-01T19:30:53.091Z,16.6
2018-04-01T19:31:05.257Z,16.6
2018-04-01T19:31:17.406Z,16.6
2018-04-01T19:31:29.557Z,16.6
2018-04-01T19:31:41.784Z,16.6
2018-04-01T19:31:53.939Z,16.6
2018-04-01T19:32:06.091Z,16.6
2018-04-01T19:32:18.223Z,16.6
2018-04-01T19:32:30.362Z,16.6
2018-04-01T19:32:42.502Z,16.6
2018-04-01T19:32:54.648Z,16.6
2018-04-01T19:33:06.805Z,16.6
2018-04-01T19:33:18.991Z,16.6
2018-04-01T19:33:31.254Z,16.6
2018-04-01T19:33:43.409Z,16.6
2018-04-01T19:33:55.550Z,16.6
2018-04-01T19:34:07.679Z,16.6
2018-04-01T19:34:19.833Z,16.6
2018-04-01T19:34:32.012Z,16.6
2018-04-01T19:34:44.449Z,16.6
2018-04-01T19:34:56.713Z,16.6
2018-04-01T19:35:08.908Z,16.6
2018-04-01T19:35:21.816Z,16.6
2018-04-01T19:35:33.960Z,16.6
2018-04-01T19:35:46.099Z,16.6
2018-04-01T19:35:58.250Z,16.6
2018-04-01T19:36:10.397Z,16.6
2018-04-01T19:36:22.540Z,16.6
2018-04-01T19:36:34.694Z,16.6
2018-04-01T19:36:46.840Z,16.6
2018-04-01T19:36:59.027Z,16.6
2018-04-01T19:37:11.167Z,16.6
2018-04-01T19:37:23.309Z,16.6
2018-04-01T19:37:35.474Z,16.6
2018-04-01T19:37:47.613Z,16.6
2018-04-01T19:37:59.748Z,16.6
2018-04-01T19:38:11.884Z,16.67
2018-04-01T19:38:24.036Z,16.67
2018-04-01T19:38:36.162Z,16.67
2018-04-01T19:38:48.355Z,16.67
2018-04-01T19:39:00.500Z,16.67
2018-04-01T19:39:12.670Z,16.67
2018-04-01T19:39:24.804Z,16.67
2018-04-01T19:39:36.940Z,16.67
2018-04-01T19:39:49.082Z,16.67
2018-04-01T19:40:01.743Z,16.67
2018-04-01T19:40:15.246Z,16.67
2018-04-01T19:40:27.689Z,16.67
2018-04-01T19:40:39.845Z,16.67
2018-04-01T19:40:52.025Z,16.67
2018-04-01T19:41:04.157Z,16.67
2018-04-01T19:41:16.300Z,16.67
2018-04-01T19:41:28.483Z,16.67
2018-04-01T19:41:40.664Z,16.67
2018-04-01T19:41:52.863Z,16.67
2018-04-01T19:42:05.151Z,16.67
2018-04-01T19:42:17.304Z,16.67
2018-04-01T19:42:29.459Z,16.67
2018-04-01T19:42:41.616Z,16.67
2018-04-01T19:42:53.788Z,16.67
2018-04-01T19:43:05.942Z,16.67
2018-04-01T19:43:18.155Z,16.67
2018-04-01T19:43:30.301Z,16.67
2018-04-01T19:43:43.067Z,16.67
2018-04-01T19:43:55.204Z,16.67
2018-04-01T19:44:07.335Z,16.67
2018-04-01T19:44:19.474Z,16.67
2018-04-01T19:44:31.617Z,16.67
2018-04-01T19:44:43.816Z,16.67
2018-04-01T19:44:55.940Z,16.67
2018-04-01T19:45:08.145Z,16.67
2018-04-01T19:45:20.361Z,16.67
2018-04-01T19:45:33.369Z,16.67
2018-04-01T19:45:45.561Z,16.67
2018-04-01T19:45:58.118Z,16.67
2018-04-01T19:46:10.280Z,16.67
2018-04-01T19:46:22.442Z,16.67
2018-04-01T19:46:34.579Z,16.67
2018-04-01T19:46:46.724Z,16.67
2018-04-01T19:46:58.865Z,16.67
2018-04-01T19:47:11.076Z,16.67
2018-04-01T19:47:23.211Z,16.67
2018-04-01T19:47:35.975Z,16.67
2018-04-01T19:47:48.121Z,16.67
2018-04-01T19:48:00.404Z,16.67
2018-04-01T19:48:12.554Z,16.48
2018-04-01T19:48:24.726Z,16.48
2018-04-01T19:48:36.951Z,16.48
2018-04-01T19:48:49.128Z,16.48
2018-04-01T19:49:01.516Z,16.48
2018-04-01T19:49:13.651Z,16.48
2018-04-01T19:49:25.807Z,16.48
2018-04-01T19:49:38.701Z,16.48
2018-04-01T19:49:50.849Z,16.48
2018-04-01T19:50:02.986Z,16.48
2018-04-01T19:50:15.124Z,16.48
2018-04-01T19:50:27.266Z,16.48
2018-04-01T19:50:39.450Z,16.48
2018-04-01T19:50:51.611Z,16.48
2018-04-01T19:51:03.881Z,16.48
2018-04-01T19:51:16.085Z,16.48
2018-04-01T19:51:28.261Z,16.48
2018-04-01T19:51:40.400Z,16.48
2018-04-01T19:51:52.561Z,16.48
2018-04-01T19:52:04.696Z,16.48
2018-04-01T19:52:16.852Z,16.48
2018-04-01T19:52:29.060Z,16.48
2018-04-01T19:52:41.238Z,16.48
2018-04-01T19:52:53.387Z,16.48
2018-04-01T19:53:05.596Z,16.48
2018-04-01T19:53:17.745Z,16.48
2018-04-01T19:53:30.069Z,16.48
2018-04-01T19:53:42.200Z,16.48
2018-04-01T19:53:54.465Z,16.48
2018-04-01T19:54:06.654Z,16.48
2018-04-01T19:54:18.791Z,16.48
2018-04-01T19:54:31.309Z,16.48
2018-04-01T19:54:43.425Z,16.48
2018-04-01T19:54:55.599Z,16.48
2018-04-01T19:55:07.948Z,16.48
2018-04-01T19:55:20.083Z,16.48
2018-04-01T19:55:32.221Z,16.48
2018-04-01T19:55:44.350Z,16.48
2018-04-01T19:55:56.686Z,16.48
2018-04-01T19:56:08.833Z,16.48
2018-04-01T19:56:20.987Z,16.48
2018-04-01T19:56:33.189Z,16.48
2018-04-01T19:56:45.377Z,16.48
2018-04-01T19:56:57.515Z,16.48
2018-04-01T19:57:09.652Z,16.48
2018-04-01T19:57:21.809Z,16.48
2018-04-01T19:57:33.936Z,16.48
2018-04-01T19:57:46.075Z,16.48
2018-04-01T19:57:58.215Z,16.48
2018-04-01T19:58:10.351Z,16.54
2018-04-01T19:58:22.493Z,16.54
2018-04-01T19:58:34.642Z,16.54
2018-04-01T19:58:46.779Z,16.54
2018-04-01T19:58:58.903Z,16.54
2018-04-01T19:59:11.230Z,16.54
2018-04-01T19:59:23.588Z,16.54
2018-04-01T19:59:35.734Z,16.54
2018-04-01T19:59:47.878Z,16.54
2018-04-01T20:00:00.082Z,16.54
2018-04-01T20:00:12.293Z,16.54
2018-04-01T20:00:24.469Z,16.54
2018-04-01T20:00:36.646Z,16.54
2018-04-01T20:00:48.823Z,16.54
2018-04-01T20:01:00.991Z,16.54
2018-04-01T20:01:13.195Z,16.54
2018-04-01T20:01:25.362Z,16.54
2018-04-01T20:01:37.522Z,16.54
2018-04-01T20:01:49.705Z,16.54
2018-04-01T20:02:01.873Z,16.54
2018-04-01T20:02:14.181Z,16.54
2018-04-01T20:02:26.347Z,16.54
2018-04-01T20:02:38.480Z,16.54
2018-04-01T20:02:50.649Z,16.54
2018-04-01T20:03:02.793Z,16.54
2018-04-01T20:03:14.982Z,16.54
2018-04-01T20:03:27.129Z,16.54
2018-04-01T20:03:39.282Z,16.54
2018-04-01T20:03:51.420Z,16.54
2018-04-01T20:04:03.657Z,16.54
2018-04-01T20:04:15.818Z,16.54
2018-04-01T20:04:27.963Z,16.54
2018-04-01T20:04:40.173Z,16.54
2018-04-01T20:04:52.303Z,16.54
2018-04-01T20:05:04.460Z,16.54
2018-04-01T20:05:16.655Z,16.54
2018-04-01T20:05:28.834Z,16.54
2018-04-01T20:05:41.619Z,16.54
2018-04-01T20:05:53.805Z,16.54
2018-04-01T20:06:05.956Z,16.54
2018-04-01T20:06:18.161Z,16.54
2018-04-01T20:06:30.297Z,16.54
2018-04-01T20:06:42.467Z,16.54
2018-04-01T20:06:55.175Z,16.54
2018-04-01T20:07:07.618Z,16.54
2018-04-01T20:07:19.751Z,16.54
2018-04-01T20:07:37.053Z,16.54
2018-04-01T20:07:49.192Z,16.54
2018-04-01T20:08:01.350Z,16.54
2018-04-01T20:08:13.488Z,21.1
2018-04-01T20:08:25.636Z,21.1
2018-04-01T20:08:37.779Z,21.1
2018-04-01T20:08:50.065Z,21.1
2018-04-01T20:09:02.273Z,21.1
2018-04-01T20:09:14.431Z,21.1
2018-04-01T20:09:26.619Z,21.1
2018-04-01T20:09:38.752Z,21.1
2018-04-01T20:09:50.901Z,21.1
2018-04-01T20:10:03.100Z,21.1
2018-04-01T20:10:15.278Z,21.1
2018-04-01T20:10:27.414Z,21.1
2018-04-01T20:10:39.544Z,21.1
2018-04-01T20:10:51.736Z,21.1
2018-04-01T20:11:03.920Z,21.1
2018-04-01T20:11:16.287Z,21.1
2018-04-01T20:11:28.415Z,21.1
2018-04-01T20:11:40.567Z,21.1
2018-04-01T20:11:52.711Z,21.1
2018-04-01T20:12:04.871Z,21.1
2018-04-01T20:12:17.015Z,21.1
2018-04-01T20:12:29.163Z,21.1
2018-04-01T20:12:41.321Z,21.1
2018-04-01T20:12:53.469Z,21.1
2018-04-01T20:13:05.778Z,21.1
2018-04-01T20:13:17.920Z,21.1
2018-04-01T20:13:30.076Z,21.1
2018-04-01T20:13:42.251Z,21.1
2018-04-01T20:13:54.823Z,21.1
2018-04-01T20:14:07.585Z,21.1
2018-04-01T20:14:19.832Z,21.1
2018-04-01T20:14:31.984Z,21.1
2018-04-01T20:14:44.160Z,21.1
2018-04-01T20:14:56.309Z,21.1
2018-04-01T20:15:08.678Z,21.1
2018-04-01T20:15:20.830Z,21.1
2018-04-01T20:15:33.002Z,21.1
2018-04-01T20:15:45.149Z,21.1
2018-04-01T20:15:57.340Z,21.1
2018-04-01T20:16:09.482Z,21.1
2018-04-01T20:16:21.623Z,21.1
2018-04-01T20:16:33.776Z,21.1
2018-04-01T20:16:45.924Z,21.1
2018-04-01T20:16:58.084Z,21.1
2018-04-01T20:17:10.234Z,21.1
2018-04-01T20:17:22.455Z,21.1
2018-04-01T20:17:34.594Z,21.1
2018-04-01T20:17:46.740Z,21.1
2018-04-01T20:17:58.918Z,21.1
2018-04-01T20:18:11.064Z,19.91
2018-04-01T20:18:23.217Z,19.91
2018-04-01T20:18:35.360Z,19.91
2018-04-01T20:18:47.530Z,19.91
2018-04-01T20:18:59.654Z,19.91
2018-04-01T20:19:11.798Z,19.91
2018-04-01T20:19:23.947Z,19.91
2018-04-01T20:19:36.176Z,19.91
2018-04-01T20:19:48.352Z,19.91
2018-04-01T20:20:00.561Z,19.91
2018-04-01T20:20:12.704Z,19.91
2018-04-01T20:20:24.946Z,19.91
2018-04-01T20:20:37.447Z,19.91
2018-04-01T20:20:49.588Z,19.91
2018-04-01T20:21:01.758Z,19.91
2018-04-01T20:21:13.932Z,19.91
2018-04-01T20:21:26.063Z,19.91
2018-04-01T20:21:38.182Z,19.91
2018-04-01T20:21:50.316Z,19.91
2018-04-01T20:22:02.484Z,19.91
2018-04-01T20:22:14.690Z,19.91
2018-04-01T20:22:26.826Z,19.91
2018-04-01T20:22:38.974Z,19.91
2018-04-01T20:22:51.102Z,19.91
2018-04-01T20:23:03.270Z,19.91
2018-04-01T20:23:15.416Z,19.91
2018-04-01T20:23:27.555Z,19.91
2018-04-01T20:23:39.699Z,19.91
2018-04-01T20:23:51.879Z,19.91
2018-04-01T20:24:04.069Z,19.91
2018-04-01T20:24:16.220Z,19.91
2018-04-01T20:24:28.366Z,19.91
2018-04-01T20:24:40.515Z,19.91
2018-04-01T20:24:52.652Z,19.91
2018-04-01T20:25:04.874Z,19.91
2018-04-01T20:25:17.052Z,19.91
2018-04-01T20:25:29.223Z,19.91
2018-04-01T20:25:41.357Z,19.91
2018-04-01T20:25:53.505Z,19.91
2018-04-01T20:26:05.664Z,19.91
2018-04-01T20:26:17.799Z,19.91
2018-04-01T20:26:29.929Z,19.91
2018-04-01T20:26:42.197Z,19.91
2018-04-01T20:26:54.329Z,19.91
2018-04-01T20:27:06.463Z,19.91
2018-04-01T20:27:18.674Z,19.91
2018-04-01T20:27:31.083Z,19.91
2018-04-01T20:27:43.219Z,19.91
2018-04-01T20:27:55.359Z,19.91
2018-04-01T20:28:07.488Z,19.91
2018-04-01T20:28:19.611Z,19.62
2018-04-01T20:28:31.744Z,19.62
2018-04-01T20:28:43.883Z,19.62
2018-04-01T20:28:56.038Z,19.62
2018-04-01T20:29:08.179Z,19.62
2018-04-01T20:29:20.340Z,19.62
2018-04-01T20:29:32.524Z,19.62
2018-04-01T20:29:44.664Z,19.62
2018-04-01T20:29:57.429Z,19.62
2018-04-01T20:30:09.608Z,19.62
2018-04-01T20:30:21.751Z,19.62
2018-04-01T20:30:33.958Z,19.62
2018-04-01T20:30:46.143Z,19.62
2018-04-01T20:30:58.288Z,19.62
2018-04-01T20:31:10.438Z,19.62
2018-04-01T20:31:22.592Z,19.62
2018-04-01T20:31:35.191Z,19.62
2018-04-01T20:31:47.358Z,19.62
2018-04-01T20:31:59.541Z,19.62
2018-04-01T20:32:11.684Z,19.62
2018-04-01T20:32:23.820Z,19.62
2018-04-01T20:32:35.965Z,19.62
2018-04-01T20:32:48.110Z,19.62
2018-04-01T20:33:00.256Z,19.62
2018-04-01T20:33:12.400Z,19.62
2018-04-01T20:33:24.686Z,19.62
2018-04-01T20:33:36.853Z,19.62
2018-04-01T20:33:49.000Z,19.62
2018-04-01T20:34:01.134Z,19.62
2018-04-01T20:34:13.269Z,19.62
2018-04-01T20:34:25.891Z,19.62
2018-04-01T20:34:38.289Z,19.62
2018-04-01T20:34:50.426Z,19.62
2018-04-01T20:35:02.594Z,19.62
2018-04-01T20:35:14.747Z,19.62
2018-04-01T20:35:26.905Z,19.62
2018-04-01T20:35:39.046Z,19.62
2018-04-01T20:35:51.182Z,19.62
2018-04-01T20:36:03.382Z,19.62
2018-04-01T20:36:15.618Z,19.62
2018-04-01T20:36:27.767Z,19.62
2018-04-01T20:36:39.938Z,19.62
2018-04-01T20:36:52.074Z,19.62
2018-04-01T20:37:04.231Z,19.62
2018-04-01T20:37:16.430Z,19.62
2018-04-01T20:37:28.572Z,19.62
2018-04-01T20:37:40.722Z,19.62
2018-04-01T20:37:52.838Z,19.62
2018-04-01T20:38:05.032Z,19.62
2018-04-01T20:38:17.182Z,17.15
2018-04-01T20:38:29.320Z,17.15
2018-04-01T20:38:41.462Z,17.15
2018-04-01T20:38:53.604Z,17.15
2018-04-01T20:39:05.803Z,17.15
2018-04-01T20:39:17.942Z,17.15
2018-04-01T20:39:30.113Z,17.15
2018-04-01T20:39:42.366Z,17.15
2018-04-01T20:39:54.498Z,17.15
2018-04-01T20:40:06.626Z,17.15
2018-04-01T20:40:18.758Z,17.15